createdAt,value
2016-08-21T00:00:29.720Z,-82
2016-08-21T00:01:29.716Z,-82
2016-08-21T00:02:29.644Z,-81
2016-08-21T00:03:29.722Z,-82
2016-08-21T00:04:29.678Z,-82
2016-08-21T00:05:29.671Z,-82
2016-08-21T00:06:29.657Z,-82
2016-08-21T00:07:29.737Z,-81
2016-08-21T00:08:29.736Z,-81
2016-08-21T00:09:29.654Z,-81
2016-08-21T00:10:29.569Z,-82
2016-08-21T00:11:29.728Z,-82
2016-08-21T00:12:29.655Z,-82
2016-08-21T00:13:29.598Z,-82
2016-08-21T00:14:29.686Z,-82
2016-08-21T00:15:29.766Z,-82
2016-08-21T00:16:29.681Z,-82
2016-08-21T00:17:29.680Z,-83
2016-08-21T00:18:29.761Z,-81
2016-08-21T00:19:29.760Z,-82
2016-08-21T00:20:29.688Z,-82
2016-08-21T00:21:29.756Z,-82
2016-08-21T00:22:29.872Z,-82
2016-08-21T00:23:29.760Z,-82
2016-08-21T00:24:29.775Z,-82
2016-08-21T00:25:29.771Z,-82
2016-08-21T00:26:29.694Z,-82
2016-08-21T00:27:29.702Z,-82
2016-08-21T00:28:29.915Z,-82
2016-08-21T00:29:29.723Z,-82
2016-08-21T00:30:29.724Z,-82
2016-08-21T00:31:29.894Z,-81
2016-08-21T00:32:29.929Z,-82
2016-08-21T00:33:29.905Z,-81
2016-08-21T00:34:29.755Z,-81
2016-08-21T00:35:29.821Z,-82
2016-08-21T00:36:29.812Z,-81
2016-08-21T00:37:29.749Z,-82
2016-08-21T00:38:30.120Z,-82
2016-08-21T00:39:29.853Z,-82
2016-08-21T00:40:29.678Z,-81
2016-08-21T00:41:29.809Z,-82
2016-08-21T00:42:29.910Z,-82
2016-08-21T00:43:29.749Z,-82
2016-08-21T00:44:29.738Z,-82
2016-08-21T00:45:29.775Z,-82
2016-08-21T00:46:29.830Z,-82
2016-08-21T00:47:29.773Z,-82
2016-08-21T00:48:29.874Z,-82
2016-08-21T00:49:29.846Z,-82
2016-08-21T00:50:29.768Z,-82
2016-08-21T00:51:29.932Z,-82
2016-08-21T00:52:29.937Z,-82
2016-08-21T00:53:29.782Z,-81
2016-08-21T00:54:29.874Z,-82
2016-08-21T00:55:29.868Z,-81
2016-08-21T00:56:29.783Z,-82
2016-08-21T00:57:29.800Z,-82
2016-08-21T00:58:29.700Z,-81
2016-08-21T00:59:29.788Z,-82
2016-08-21T01:00:29.947Z,-82
2016-08-21T01:01:29.821Z,-82
2016-08-21T01:02:29.813Z,-82
2016-08-21T01:03:29.908Z,-81
2016-08-21T01:04:29.889Z,-82
2016-08-21T01:05:29.851Z,-82
2016-08-21T01:06:29.993Z,-82
2016-08-21T01:07:29.841Z,-82
2016-08-21T01:08:29.825Z,-82
2016-08-21T01:09:29.913Z,-82
2016-08-21T01:10:29.890Z,-81
2016-08-21T01:11:29.910Z,-82
2016-08-21T01:12:29.876Z,-82
2016-08-21T01:13:30.023Z,-83
2016-08-21T01:14:29.840Z,-82
2016-08-21T01:15:29.746Z,-82
2016-08-21T01:16:29.832Z,-81
2016-08-21T01:17:29.830Z,-82
2016-08-21T01:18:29.791Z,-81
2016-08-21T01:19:29.776Z,-82
2016-08-21T01:20:29.867Z,-81
2016-08-21T01:21:29.961Z,-82
2016-08-21T01:22:29.801Z,-82
2016-08-21T01:23:30.007Z,-83
2016-08-21T01:24:29.936Z,-82
2016-08-21T01:25:29.888Z,-82
2016-08-21T01:26:29.875Z,-82
2016-08-21T01:27:29.962Z,-82
2016-08-21T01:28:29.917Z,-82
2016-08-21T01:29:29.902Z,-81
2016-08-21T01:30:29.894Z,-82
2016-08-21T01:31:30.077Z,-82
2016-08-21T01:32:29.999Z,-82
2016-08-21T01:33:29.978Z,-82
2016-08-21T01:34:30.064Z,-82
2016-08-21T01:35:29.898Z,-82
2016-08-21T01:36:30.008Z,-82
2016-08-21T01:37:30.097Z,-82
2016-08-21T01:38:30.093Z,-82
2016-08-21T01:39:29.822Z,-82
2016-08-21T01:40:29.836Z,-82
2016-08-21T01:41:30.061Z,-82
2016-08-21T01:42:30.077Z,-82
2016-08-21T01:43:29.940Z,-82
2016-08-21T01:44:30.067Z,-81
2016-08-21T01:45:29.930Z,-82
2016-08-21T01:46:30.029Z,-82
2016-08-21T01:47:29.998Z,-82
2016-08-21T01:48:30.056Z,-82
2016-08-21T01:49:29.962Z,-82
2016-08-21T01:50:30.019Z,-82
2016-08-21T01:51:30.019Z,-82
2016-08-21T01:52:29.863Z,-82
2016-08-21T01:53:30.041Z,-82
2016-08-21T01:54:29.952Z,-82
2016-08-21T01:55:29.968Z,-82
2016-08-21T01:56:29.975Z,-83
2016-08-21T01:57:30.036Z,-82
2016-08-21T01:58:29.962Z,-82
2016-08-21T01:59:30.044Z,-82
2016-08-21T02:00:29.954Z,-82
2016-08-21T02:01:30.047Z,-83
2016-08-21T02:02:29.988Z,-83
2016-08-21T02:03:30.075Z,-83
2016-08-21T02:04:30.118Z,-82
2016-08-21T02:05:30.099Z,-82
2016-08-21T02:06:29.991Z,-82
2016-08-21T02:07:30.012Z,-83
2016-08-21T02:08:30.016Z,-82
2016-08-21T02:09:30.091Z,-82
2016-08-21T02:10:29.981Z,-83
2016-08-21T02:11:30.013Z,-83
2016-08-21T02:12:30.004Z,-82
2016-08-21T02:13:30.012Z,-81
2016-08-21T02:14:30.137Z,-82
2016-08-21T02:15:30.024Z,-82
2016-08-21T02:16:30.098Z,-82
2016-08-21T02:17:30.050Z,-83
2016-08-21T02:18:30.127Z,-82
2016-08-21T02:19:30.108Z,-83
2016-08-21T02:20:29.956Z,-82
2016-08-21T02:21:30.179Z,-82
2016-08-21T02:22:30.114Z,-83
2016-08-21T02:23:30.025Z,-82
2016-08-21T02:24:30.109Z,-83
2016-08-21T02:25:30.144Z,-83
2016-08-21T02:26:30.075Z,-82
2016-08-21T02:27:30.128Z,-83
2016-08-21T02:28:30.104Z,-82
2016-08-21T02:29:30.197Z,-82
2016-08-21T02:30:30.206Z,-83
2016-08-21T02:31:30.170Z,-82
2016-08-21T02:32:29.992Z,-82
2016-08-21T02:33:30.218Z,-82
2016-08-21T02:34:29.990Z,-82
2016-08-21T02:35:30.139Z,-83
2016-08-21T02:36:30.093Z,-83
2016-08-21T02:37:30.217Z,-83
2016-08-21T02:38:30.205Z,-82
2016-08-21T02:39:30.160Z,-82
2016-08-21T02:40:30.098Z,-82
2016-08-21T02:41:30.083Z,-82
2016-08-21T02:42:30.238Z,-82
2016-08-21T02:43:30.168Z,-82
2016-08-21T02:44:30.118Z,-82
2016-08-21T02:45:30.284Z,-82
2016-08-21T02:46:30.116Z,-82
2016-08-21T02:47:30.195Z,-82
2016-08-21T02:48:30.140Z,-82
2016-08-21T02:49:30.104Z,-83
2016-08-21T02:50:30.109Z,-82
2016-08-21T02:51:30.118Z,-82
2016-08-21T02:52:30.201Z,-82
2016-08-21T02:53:30.136Z,-82
2016-08-21T02:54:30.115Z,-83
2016-08-21T02:55:30.102Z,-83
2016-08-21T02:56:30.046Z,-82
2016-08-21T02:57:30.311Z,-82
2016-08-21T02:58:30.128Z,-83
2016-08-21T02:59:30.062Z,-83
2016-08-21T03:00:30.136Z,-83
2016-08-21T03:01:30.276Z,-82
2016-08-21T03:02:30.154Z,-83
2016-08-21T03:03:30.205Z,-83
2016-08-21T03:04:30.216Z,-82
2016-08-21T03:05:30.092Z,-83
2016-08-21T03:06:30.188Z,-82
2016-08-21T03:07:30.247Z,-83
2016-08-21T03:08:30.144Z,-82
2016-08-21T03:09:30.219Z,-83
2016-08-21T03:10:30.182Z,-82
2016-08-21T03:11:30.327Z,-83
2016-08-21T03:12:30.247Z,-82
2016-08-21T03:13:30.246Z,-83
2016-08-21T03:14:30.177Z,-83
2016-08-21T03:15:30.339Z,-83
2016-08-21T03:16:30.214Z,-82
2016-08-21T03:17:30.250Z,-82
2016-08-21T03:18:30.205Z,-82
2016-08-21T03:19:30.293Z,-83
2016-08-21T03:20:30.275Z,-83
2016-08-21T03:21:30.127Z,-83
2016-08-21T03:22:30.342Z,-83
2016-08-21T03:23:30.263Z,-83
2016-08-21T03:24:30.206Z,-83
2016-08-21T03:25:30.132Z,-83
2016-08-21T03:26:30.123Z,-83
2016-08-21T03:27:30.341Z,-83
2016-08-21T03:28:30.137Z,-82
2016-08-21T03:29:30.142Z,-82
2016-08-21T03:30:30.215Z,-82
2016-08-21T03:31:30.244Z,-82
2016-08-21T03:32:30.310Z,-83
2016-08-21T03:33:30.256Z,-82
2016-08-21T03:34:30.253Z,-83
2016-08-21T03:35:30.243Z,-83
2016-08-21T03:36:30.312Z,-83
2016-08-21T03:37:30.350Z,-83
2016-08-21T03:42:49.030Z,-82
2016-08-21T03:42:56.004Z,-83
2016-08-21T03:43:55.934Z,-82
2016-08-21T03:44:56.044Z,-83
2016-08-21T03:45:55.997Z,-82
2016-08-21T03:46:56.041Z,-83
2016-08-21T03:47:56.099Z,-83
2016-08-21T03:48:56.007Z,-83
2016-08-21T03:49:56.022Z,-83
2016-08-21T03:50:55.891Z,-83
2016-08-21T03:51:55.955Z,-82
2016-08-21T03:52:56.100Z,-82
2016-08-21T03:53:55.966Z,-82
2016-08-21T03:54:56.034Z,-83
2016-08-21T03:55:56.031Z,-83
2016-08-21T03:56:55.958Z,-83
2016-08-21T03:57:56.131Z,-83
2016-08-21T03:58:55.896Z,-83
2016-08-21T03:59:55.960Z,-83
2016-08-21T04:00:55.897Z,-83
2016-08-21T04:01:55.986Z,-82
2016-08-21T04:02:56.158Z,-82
2016-08-21T04:03:55.994Z,-83
2016-08-21T04:04:56.072Z,-83
2016-08-21T04:05:55.914Z,-82
2016-08-21T04:06:56.091Z,-83
2016-08-21T04:07:56.072Z,-82
2016-08-21T04:08:56.072Z,-82
2016-08-21T04:09:55.923Z,-82
2016-08-21T04:10:56.081Z,-83
2016-08-21T04:11:55.924Z,-82
2016-08-21T04:12:56.196Z,-83
2016-08-21T04:13:56.021Z,-83
2016-08-21T04:14:56.005Z,-82
2016-08-21T04:15:56.134Z,-83
2016-08-21T04:16:56.100Z,-82
2016-08-21T04:17:56.091Z,-83
2016-08-21T04:18:56.100Z,-82
2016-08-21T04:19:56.110Z,-82
2016-08-21T04:20:55.964Z,-83
2016-08-21T04:21:56.098Z,-83
2016-08-21T04:22:56.123Z,-83
2016-08-21T04:23:56.128Z,-83
2016-08-21T04:24:56.186Z,-82
2016-08-21T04:25:56.206Z,-82
2016-08-21T04:26:56.133Z,-82
2016-08-21T04:27:56.126Z,-83
2016-08-21T04:28:56.064Z,-82
2016-08-21T04:29:56.117Z,-83
2016-08-21T04:30:56.051Z,-83
2016-08-21T04:31:56.076Z,-82
2016-08-21T04:32:56.212Z,-83
2016-08-21T04:33:56.134Z,-83
2016-08-21T04:34:55.982Z,-82
2016-08-21T04:35:56.175Z,-82
2016-08-21T04:36:56.082Z,-82
2016-08-21T04:37:56.166Z,-83
2016-08-21T04:38:56.243Z,-82
2016-08-21T04:39:56.159Z,-83
2016-08-21T04:40:56.140Z,-82
2016-08-21T04:41:56.088Z,-82
2016-08-21T04:42:56.211Z,-83
2016-08-21T04:43:56.171Z,-82
2016-08-21T04:44:56.207Z,-83
2016-08-21T04:45:56.145Z,-83
2016-08-21T04:46:56.094Z,-83
2016-08-21T04:47:56.106Z,-82
2016-08-21T04:48:56.189Z,-83
2016-08-21T04:49:56.108Z,-82
2016-08-21T04:50:56.277Z,-83
2016-08-21T04:51:56.111Z,-87
2016-08-21T04:52:56.291Z,-84
2016-08-21T04:53:56.061Z,-84
2016-08-21T04:54:56.121Z,-83
2016-08-21T04:55:56.211Z,-84
2016-08-21T04:56:56.236Z,-84
2016-08-21T04:57:56.236Z,-84
2016-08-21T04:58:56.141Z,-84
2016-08-21T04:59:56.229Z,-83
2016-08-21T05:00:56.230Z,-84
2016-08-21T05:01:56.218Z,-84
2016-08-21T05:02:56.097Z,-84
2016-08-21T05:03:56.305Z,-84
2016-08-21T05:04:56.320Z,-83
2016-08-21T05:05:56.246Z,-84
2016-08-21T05:06:56.280Z,-84
2016-08-21T05:07:56.257Z,-85
2016-08-21T05:08:56.321Z,-84
2016-08-21T05:09:56.169Z,-84
2016-08-21T05:10:56.227Z,-84
2016-08-21T05:11:56.104Z,-85
2016-08-21T05:12:56.266Z,-84
2016-08-21T05:13:56.173Z,-84
2016-08-21T05:14:56.105Z,-84
2016-08-21T05:15:56.247Z,-84
2016-08-21T05:16:56.342Z,-84
2016-08-21T05:17:56.199Z,-84
2016-08-21T05:18:56.354Z,-84
2016-08-21T05:19:56.113Z,-84
2016-08-21T05:20:56.265Z,-84
2016-08-21T05:21:56.268Z,-84
2016-08-21T05:22:56.298Z,-84
2016-08-21T05:23:56.371Z,-84
2016-08-21T05:24:56.215Z,-84
2016-08-21T05:25:56.285Z,-84
2016-08-21T05:26:56.303Z,-84
2016-08-21T05:27:56.315Z,-84
2016-08-21T05:28:56.312Z,-84
2016-08-21T05:29:56.218Z,-84
2016-08-21T05:30:56.295Z,-84
2016-08-21T05:31:56.287Z,-84
2016-08-21T05:32:56.241Z,-85
2016-08-21T05:33:56.324Z,-84
2016-08-21T05:34:56.159Z,-84
2016-08-21T05:35:56.162Z,-84
2016-08-21T05:36:56.182Z,-84
2016-08-21T05:37:56.312Z,-84
2016-08-21T05:38:56.335Z,-84
2016-08-21T05:39:56.262Z,-84
2016-08-21T05:40:56.182Z,-84
2016-08-21T05:41:56.182Z,-85
2016-08-21T05:42:56.626Z,-84
2016-08-21T05:43:56.269Z,-83
2016-08-21T05:44:56.332Z,-84
2016-08-21T05:45:56.275Z,-84
2016-08-21T05:46:56.356Z,-84
2016-08-21T05:47:56.278Z,-84
2016-08-21T05:48:56.300Z,-84
2016-08-21T05:49:56.354Z,-83
2016-08-21T05:50:56.456Z,-84
2016-08-21T05:51:56.378Z,-84
2016-08-21T05:52:56.203Z,-84
2016-08-21T05:53:56.280Z,-85
2016-08-21T05:54:56.464Z,-84
2016-08-21T05:55:56.450Z,-84
2016-08-21T05:56:56.396Z,-84
2016-08-21T05:57:56.406Z,-84
2016-08-21T05:58:56.309Z,-84
2016-08-21T05:59:56.324Z,-84
2016-08-21T06:00:56.320Z,-84
2016-08-21T06:01:56.389Z,-84
2016-08-21T06:02:56.334Z,-84
2016-08-21T06:03:56.447Z,-84
2016-08-21T06:04:56.361Z,-85
2016-08-21T06:05:56.310Z,-84
2016-08-21T06:06:56.329Z,-85
2016-08-21T06:07:56.410Z,-84
2016-08-21T06:08:56.435Z,-84
2016-08-21T06:09:56.509Z,-84
2016-08-21T06:10:56.350Z,-84
2016-08-21T06:11:56.409Z,-84
2016-08-21T06:12:56.349Z,-85
2016-08-21T06:13:56.410Z,-85
2016-08-21T06:14:56.416Z,-85
2016-08-21T06:15:56.287Z,-85
2016-08-21T06:16:56.544Z,-85
2016-08-21T06:17:56.526Z,-85
2016-08-21T06:18:56.426Z,-85
2016-08-21T06:19:56.423Z,-85
2016-08-21T06:20:56.355Z,-82
2016-08-21T06:21:56.446Z,-82
2016-08-21T06:22:56.503Z,-82
2016-08-21T06:23:56.366Z,-82
2016-08-21T06:24:56.446Z,-82
2016-08-21T06:25:56.375Z,-82
2016-08-21T06:26:56.375Z,-82
2016-08-21T06:27:56.463Z,-82
2016-08-21T06:28:56.400Z,-82
2016-08-21T06:29:56.315Z,-82
2016-08-21T06:30:56.434Z,-82
2016-08-21T06:31:56.375Z,-82
2016-08-21T06:32:56.400Z,-81
2016-08-21T06:33:56.543Z,-82
2016-08-21T06:34:56.485Z,-81
2016-08-21T06:35:56.471Z,-82
2016-08-21T06:36:56.485Z,-82
2016-08-21T06:37:56.416Z,-82
2016-08-21T06:38:56.420Z,-81
2016-08-21T06:39:56.491Z,-82
2016-08-21T06:40:56.481Z,-82
2016-08-21T06:41:56.431Z,-82
2016-08-21T06:42:56.615Z,-82
2016-08-21T06:43:56.561Z,-82
2016-08-21T06:44:56.443Z,-83
2016-08-21T06:45:56.340Z,-82
2016-08-21T06:46:56.369Z,-82
2016-08-21T06:47:56.399Z,-81
2016-08-21T06:48:56.519Z,-82
2016-08-21T06:49:56.447Z,-81
2016-08-21T06:50:56.464Z,-82
2016-08-21T06:51:56.515Z,-82
2016-08-21T06:52:56.376Z,-81
2016-08-21T06:53:56.531Z,-81
2016-08-21T06:54:56.376Z,-82
2016-08-21T06:55:56.614Z,-81
2016-08-21T06:56:56.542Z,-81
2016-08-21T06:57:56.542Z,-82
2016-08-21T06:58:56.482Z,-82
2016-08-21T06:59:56.476Z,-82
2016-08-21T07:00:56.630Z,-81
2016-08-21T07:01:56.469Z,-81
2016-08-21T07:02:56.560Z,-82
2016-08-21T07:03:56.495Z,-82
2016-08-21T07:04:56.464Z,-82
2016-08-21T07:05:56.595Z,-82
2016-08-21T07:06:56.567Z,-82
2016-08-21T07:07:56.583Z,-82
2016-08-21T07:08:56.577Z,-81
2016-08-21T07:09:56.426Z,-82
2016-08-21T07:10:56.424Z,-83
2016-08-21T07:11:56.508Z,-82
2016-08-21T07:12:56.581Z,-82
2016-08-21T07:13:56.439Z,-82
2016-08-21T07:14:56.646Z,-82
2016-08-21T07:15:56.517Z,-81
2016-08-21T07:16:56.591Z,-82
2016-08-21T07:17:56.583Z,-82
2016-08-21T07:18:56.497Z,-81
2016-08-21T07:19:56.522Z,-82
2016-08-21T07:20:56.510Z,-82
2016-08-21T07:21:56.544Z,-82
2016-08-21T07:22:56.555Z,-82
2016-08-21T07:23:56.630Z,-82
2016-08-21T07:24:56.617Z,-81
2016-08-21T07:25:56.653Z,-82
2016-08-21T07:26:56.600Z,-82
2016-08-21T07:27:56.640Z,-82
2016-08-21T07:28:56.561Z,-82
2016-08-21T07:29:56.648Z,-83
2016-08-21T07:30:56.780Z,-81
2016-08-21T07:31:56.559Z,-81
2016-08-21T07:32:56.700Z,-81
2016-08-21T07:33:56.566Z,-82
2016-08-21T07:34:56.482Z,-82
2016-08-21T07:35:56.675Z,-82
2016-08-21T07:36:56.596Z,-82
2016-08-21T07:37:56.579Z,-82
2016-08-21T07:38:56.653Z,-81
2016-08-21T07:39:56.603Z,-81
2016-08-21T07:40:56.606Z,-83
2016-08-21T07:41:56.658Z,-82
2016-08-21T07:42:56.677Z,-82
2016-08-21T07:43:56.807Z,-82
2016-08-21T07:44:56.779Z,-82
2016-08-21T07:45:56.603Z,-82
2016-08-21T07:46:56.609Z,-81
2016-08-21T07:47:56.658Z,-82
2016-08-21T07:48:56.629Z,-82
2016-08-21T07:49:56.627Z,-81
2016-08-21T07:50:56.767Z,-82
2016-08-21T07:51:56.689Z,-82
2016-08-21T07:52:56.628Z,-82
2016-08-21T07:53:56.694Z,-82
2016-08-21T07:54:56.640Z,-81
2016-08-21T07:55:56.719Z,-81
2016-08-21T07:56:56.703Z,-82
2016-08-21T07:57:56.718Z,-81
2016-08-21T07:58:56.656Z,-82
2016-08-21T07:59:56.747Z,-83
2016-08-21T08:00:56.746Z,-82
2016-08-21T08:01:56.739Z,-81
2016-08-21T08:02:56.768Z,-82
2016-08-21T08:03:56.821Z,-82
2016-08-21T08:04:56.611Z,-81
2016-08-21T08:05:56.648Z,-82
2016-08-21T08:06:56.727Z,-81
2016-08-21T08:07:56.683Z,-82
2016-08-21T08:08:56.759Z,-82
2016-08-21T08:09:56.829Z,-81
2016-08-21T08:10:56.753Z,-81
2016-08-21T08:11:56.690Z,-80
2016-08-21T08:12:56.684Z,-82
2016-08-21T08:13:56.719Z,-82
2016-08-21T08:14:56.841Z,-81
2016-08-21T08:15:56.633Z,-82
2016-08-21T08:16:56.841Z,-81
2016-08-21T08:17:56.687Z,-81
2016-08-21T08:18:56.700Z,-81
2016-08-21T08:19:56.698Z,-83
2016-08-21T08:20:56.705Z,-81
2016-08-21T08:21:56.803Z,-81
2016-08-21T08:22:56.858Z,-80
2016-08-21T08:23:56.780Z,-81
2016-08-21T08:24:56.725Z,-81
2016-08-21T08:25:56.808Z,-82
2016-08-21T08:26:56.878Z,-82
2016-08-21T08:27:56.803Z,-81
2016-08-21T08:28:56.673Z,-82
2016-08-21T08:29:56.805Z,-81
2016-08-21T08:30:56.761Z,-81
2016-08-21T08:31:56.748Z,-81
2016-08-21T08:32:56.741Z,-81
2016-08-21T08:33:56.891Z,-83
2016-08-21T08:34:56.808Z,-81
2016-08-21T08:35:56.773Z,-83
2016-08-21T08:36:56.746Z,-81
2016-08-21T08:37:56.756Z,-82
2016-08-21T08:38:56.825Z,-82
2016-08-21T08:39:56.840Z,-82
2016-08-21T08:40:56.756Z,-82
2016-08-21T08:41:56.842Z,-81
2016-08-21T08:42:56.745Z,-82
2016-08-21T08:43:57.100Z,-82
2016-08-21T08:44:56.864Z,-81
2016-08-21T08:45:56.767Z,-81
2016-08-21T08:46:56.856Z,-81
2016-08-21T08:47:56.769Z,-82
2016-08-21T08:48:56.787Z,-81
2016-08-21T08:49:56.802Z,-81
2016-08-21T08:50:56.867Z,-82
2016-08-21T08:51:56.796Z,-81
2016-08-21T08:52:56.774Z,-81
2016-08-21T08:53:56.870Z,-81
2016-08-21T08:54:56.767Z,-82
2016-08-21T08:55:56.981Z,-81
2016-08-21T08:56:56.822Z,-82
2016-08-21T08:57:56.815Z,-82
2016-08-21T08:58:56.764Z,-82
2016-08-21T08:59:56.901Z,-82
2016-08-21T09:00:56.836Z,-82
2016-08-21T09:01:56.832Z,-81
2016-08-21T09:02:56.838Z,-82
2016-08-21T09:03:56.903Z,-82
2016-08-21T09:04:57.037Z,-82
2016-08-21T09:05:56.970Z,-82
2016-08-21T09:06:56.919Z,-82
2016-08-21T09:07:56.904Z,-81
2016-08-21T09:08:56.923Z,-81
2016-08-21T09:09:56.940Z,-81
2016-08-21T09:10:56.904Z,-83
2016-08-21T09:11:56.788Z,-82
2016-08-21T09:12:56.937Z,-82
2016-08-21T09:13:56.846Z,-85
2016-08-21T09:14:56.855Z,-82
2016-08-21T09:15:57.951Z,-82
2016-08-21T09:16:57.003Z,-82
2016-08-21T09:17:56.948Z,-84
2016-08-21T09:18:57.015Z,-81
2016-08-21T09:19:57.007Z,-83
2016-08-21T09:20:56.792Z,-82
2016-08-21T09:21:56.958Z,-81
2016-08-21T09:22:56.950Z,-83
2016-08-21T09:23:56.821Z,-82
2016-08-21T09:24:56.904Z,-83
2016-08-21T09:25:56.815Z,-84
2016-08-21T09:26:56.912Z,-84
2016-08-21T09:27:57.043Z,-83
2016-08-21T09:28:56.965Z,-82
2016-08-21T09:29:57.041Z,-81
2016-08-21T09:30:56.926Z,-81
2016-08-21T09:31:56.912Z,-81
2016-08-21T09:32:56.902Z,-80
2016-08-21T09:33:57.072Z,-81
2016-08-21T09:34:56.993Z,-80
2016-08-21T09:35:57.000Z,-80
2016-08-21T09:36:56.906Z,-82
2016-08-21T09:37:57.001Z,-81
2016-08-21T09:38:57.021Z,-81
2016-08-21T09:39:56.998Z,-81
2016-08-21T09:40:56.950Z,-81
2016-08-21T09:41:57.078Z,-80
2016-08-21T09:42:57.115Z,-83
2016-08-21T09:43:57.141Z,-81
2016-08-21T09:44:56.861Z,-81
2016-08-21T09:45:57.005Z,-80
2016-08-21T09:46:56.943Z,-81
2016-08-21T09:47:57.096Z,-80
2016-08-21T09:48:56.894Z,-81
2016-08-21T09:49:57.125Z,-81
2016-08-21T09:50:56.959Z,-80
2016-08-21T09:51:57.133Z,-81
2016-08-21T09:52:57.029Z,-81
2016-08-21T09:53:57.003Z,-79
2016-08-21T09:54:57.033Z,-80
2016-08-21T09:55:56.895Z,-80
2016-08-21T09:56:57.128Z,-82
2016-08-21T09:57:57.069Z,-80
2016-08-21T09:58:57.012Z,-81
2016-08-21T09:59:57.186Z,-80
2016-08-21T10:00:57.153Z,-80
2016-08-21T10:01:57.258Z,-80
2016-08-21T10:02:56.956Z,-80
2016-08-21T10:03:57.066Z,-80
2016-08-21T10:04:56.997Z,-80
2016-08-21T10:05:57.082Z,-79
2016-08-21T10:06:56.957Z,-80
2016-08-21T10:07:57.142Z,-81
2016-08-21T10:08:56.928Z,-81
2016-08-21T10:09:57.155Z,-80
2016-08-21T10:10:57.175Z,-81
2016-08-21T10:11:57.106Z,-80
2016-08-21T10:12:57.092Z,-82
2016-08-21T10:13:57.095Z,-80
2016-08-21T10:14:57.094Z,-80
2016-08-21T10:15:57.038Z,-81
2016-08-21T10:16:57.023Z,-81
2016-08-21T10:17:57.195Z,-80
2016-08-21T10:18:57.192Z,-81
2016-08-21T10:19:57.194Z,-81
2016-08-21T10:20:56.975Z,-80
2016-08-21T10:21:57.056Z,-82
2016-08-21T10:22:56.972Z,-81
2016-08-21T10:23:57.064Z,-80
2016-08-21T10:24:57.136Z,-81
2016-08-21T10:25:57.143Z,-81
2016-08-21T10:26:57.121Z,-82
2016-08-21T10:27:57.215Z,-83
2016-08-21T10:28:57.144Z,-80
2016-08-21T10:29:57.160Z,-82
2016-08-21T10:30:57.142Z,-81
2016-08-21T10:31:56.998Z,-81
2016-08-21T10:32:57.077Z,-82
2016-08-21T10:33:57.075Z,-81
2016-08-21T10:34:57.246Z,-81
2016-08-21T10:35:57.009Z,-81
2016-08-21T10:36:57.167Z,-82
2016-08-21T10:37:57.177Z,-81
2016-08-21T10:38:57.104Z,-81
2016-08-21T10:39:57.181Z,-81
2016-08-21T10:40:57.187Z,-82
2016-08-21T10:41:57.187Z,-81
2016-08-21T10:42:57.113Z,-83
2016-08-21T10:43:57.021Z,-82
2016-08-21T10:44:57.288Z,-82
2016-08-21T10:45:57.028Z,-83
2016-08-21T10:46:57.176Z,-83
2016-08-21T10:47:57.131Z,-82
2016-08-21T10:48:57.227Z,-83
2016-08-21T10:49:57.216Z,-82
2016-08-21T10:50:57.140Z,-83
2016-08-21T10:51:57.052Z,-82
2016-08-21T10:52:57.229Z,-83
2016-08-21T10:53:57.198Z,-83
2016-08-21T10:54:57.293Z,-83
2016-08-21T10:55:57.134Z,-82
2016-08-21T10:56:57.139Z,-82
2016-08-21T10:57:57.249Z,-83
2016-08-21T10:58:57.301Z,-83
2016-08-21T10:59:57.158Z,-83
2016-08-21T11:00:57.150Z,-83
2016-08-21T11:01:57.318Z,-84
2016-08-21T11:02:57.083Z,-83
2016-08-21T11:03:57.165Z,-85
2016-08-21T11:04:57.218Z,-83
2016-08-21T11:05:57.211Z,-82
2016-08-21T11:06:57.254Z,-82
2016-08-21T11:07:57.094Z,-84
2016-08-21T11:08:57.261Z,-83
2016-08-21T11:09:57.266Z,-83
2016-08-21T11:10:57.135Z,-83
2016-08-21T11:11:57.186Z,-82
2016-08-21T11:12:57.190Z,-82
2016-08-21T11:13:57.204Z,-82
2016-08-21T11:14:57.235Z,-83
2016-08-21T11:15:57.183Z,-82
2016-08-21T11:16:57.198Z,-82
2016-08-21T11:17:57.124Z,-81
2016-08-21T11:18:57.306Z,-81
2016-08-21T11:19:57.526Z,-81
2016-08-21T11:20:57.475Z,-82
2016-08-21T11:21:57.322Z,-81
2016-08-21T11:22:57.309Z,-82
2016-08-21T11:23:57.494Z,-83
2016-08-21T11:24:57.310Z,-82
2016-08-21T11:25:57.384Z,-81
2016-08-21T11:26:57.325Z,-82
2016-08-21T11:27:57.656Z,-82
2016-08-21T11:28:57.311Z,-83
2016-08-21T11:29:57.254Z,-81
2016-08-21T11:30:57.241Z,-80
2016-08-21T11:31:57.263Z,-81
2016-08-21T11:32:57.178Z,-82
2016-08-21T11:33:57.320Z,-81
2016-08-21T11:34:57.325Z,-82
2016-08-21T11:35:57.387Z,-82
2016-08-21T11:36:57.276Z,-82
2016-08-21T11:37:57.443Z,-81
2016-08-21T11:38:57.345Z,-82
2016-08-21T11:39:57.382Z,-81
2016-08-21T11:40:57.268Z,-80
2016-08-21T11:41:57.354Z,-81
2016-08-21T11:42:57.409Z,-81
2016-08-21T11:43:57.324Z,-81
2016-08-21T11:44:57.424Z,-81
2016-08-21T11:45:57.309Z,-81
2016-08-21T11:46:57.374Z,-82
2016-08-21T11:47:57.394Z,-82
2016-08-21T11:48:57.386Z,-81
2016-08-21T11:49:57.366Z,-81
2016-08-21T11:50:57.419Z,-81
2016-08-21T11:51:57.378Z,-82
2016-08-21T11:52:57.375Z,-81
2016-08-21T11:53:57.238Z,-82
2016-08-21T11:54:57.334Z,-80
2016-08-21T11:55:57.237Z,-81
2016-08-21T11:56:57.320Z,-81
2016-08-21T11:57:57.334Z,-80
2016-08-21T11:58:57.438Z,-80
2016-08-21T11:59:57.330Z,-81
2016-08-21T12:00:57.445Z,-84
2016-08-21T12:01:57.526Z,-81
2016-08-21T12:02:57.481Z,-83
2016-08-21T12:03:57.631Z,-81
2016-08-21T12:04:57.414Z,-81
2016-08-21T12:05:57.444Z,-82
2016-08-21T12:06:57.500Z,-83
2016-08-21T12:07:57.404Z,-82
2016-08-21T12:08:57.303Z,-81
2016-08-21T12:09:57.411Z,-83
2016-08-21T12:10:57.343Z,-82
2016-08-21T12:11:57.443Z,-81
2016-08-21T12:12:57.375Z,-82
2016-08-21T12:13:57.395Z,-82
2016-08-21T12:14:57.439Z,-82
2016-08-21T12:15:57.460Z,-82
2016-08-21T12:16:57.467Z,-82
2016-08-21T12:17:57.395Z,-84
2016-08-21T12:18:57.401Z,-83
2016-08-21T12:19:57.422Z,-82
2016-08-21T12:20:58.410Z,-81
2016-08-21T12:21:57.641Z,-84
2016-08-21T12:22:57.560Z,-83
2016-08-21T12:23:57.471Z,-85
2016-08-21T12:24:57.346Z,-84
2016-08-21T12:25:57.563Z,-85
2016-08-21T12:26:57.325Z,-83
2016-08-21T12:27:57.409Z,-84
2016-08-21T12:28:57.488Z,-83
2016-08-21T12:29:57.428Z,-84
2016-08-21T12:30:57.499Z,-82
2016-08-21T12:31:57.416Z,-83
2016-08-21T12:32:57.547Z,-82
2016-08-21T12:33:57.512Z,-83
2016-08-21T12:34:57.570Z,-83
2016-08-21T12:35:57.517Z,-84
2016-08-21T12:36:57.450Z,-84
2016-08-21T12:37:57.491Z,-83
2016-08-21T12:38:57.518Z,-84
2016-08-21T12:39:57.592Z,-90
2016-08-21T12:40:57.481Z,-84
2016-08-21T12:41:57.456Z,-82
2016-08-21T12:42:57.502Z,-81
2016-08-21T12:43:57.477Z,-83
2016-08-21T12:44:57.740Z,-83
2016-08-21T12:45:57.675Z,-81
2016-08-21T12:46:57.488Z,-82
2016-08-21T12:47:57.484Z,-82
2016-08-21T12:48:57.483Z,-83
2016-08-21T12:49:59.675Z,-80
2016-08-21T12:50:57.509Z,-82
2016-08-21T12:51:57.502Z,-82
2016-08-21T12:52:57.569Z,-82
2016-08-21T12:53:57.514Z,-84
2016-08-21T12:54:57.422Z,-82
2016-08-21T12:55:57.444Z,-81
2016-08-21T12:56:57.615Z,-82
2016-08-21T12:57:57.468Z,-82
2016-08-21T12:58:57.631Z,-82
2016-08-21T12:59:57.514Z,-81
2016-08-21T13:00:57.644Z,-81
2016-08-21T13:01:57.605Z,-82
2016-08-21T13:02:57.677Z,-81
2016-08-21T13:03:57.479Z,-83
2016-08-21T13:04:57.540Z,-83
2016-08-21T13:05:57.568Z,-83
2016-08-21T13:06:57.646Z,-83
2016-08-21T13:07:57.529Z,-83
2016-08-21T13:08:57.696Z,-83
2016-08-21T13:09:57.563Z,-82
2016-08-21T13:10:57.643Z,-81
2016-08-21T13:11:57.739Z,-83
2016-08-21T13:12:57.605Z,-81
2016-08-21T13:13:57.541Z,-82
2016-08-21T13:14:57.711Z,-82
2016-08-21T13:15:57.624Z,-81
2016-08-21T13:16:57.541Z,-82
2016-08-21T13:17:57.736Z,-79
2016-08-21T13:18:57.619Z,-80
2016-08-21T13:19:57.647Z,-81
2016-08-21T13:20:57.710Z,-81
2016-08-21T13:21:57.603Z,-79
2016-08-21T13:22:57.672Z,-80
2016-08-21T13:23:57.629Z,-80
2016-08-21T13:24:57.621Z,-81
2016-08-21T13:25:57.743Z,-80
2016-08-21T13:26:57.817Z,-81
2016-08-21T13:27:57.764Z,-81
2016-08-21T13:28:57.533Z,-81
2016-08-21T13:29:57.663Z,-80
2016-08-21T13:30:57.663Z,-81
2016-08-21T13:31:57.618Z,-81
2016-08-21T13:32:58.072Z,-81
2016-08-21T13:33:57.800Z,-81
2016-08-21T13:35:00.457Z,-81
2016-08-21T13:35:57.793Z,-82
2016-08-21T13:36:58.152Z,-82
2016-08-21T13:37:58.757Z,-82
2016-08-21T13:39:03.469Z,-83
2016-08-21T13:39:57.723Z,-83
2016-08-21T13:40:57.902Z,-83
2016-08-21T13:41:57.712Z,-82
2016-08-21T13:42:57.777Z,-83
2016-08-21T13:43:57.616Z,-83
2016-08-21T13:44:57.950Z,-84
2016-08-21T13:45:57.904Z,-82
2016-08-21T13:46:58.152Z,-82
2016-08-21T13:47:58.940Z,-83
2016-08-21T13:48:59.185Z,-82
2016-08-21T13:49:58.920Z,-83